sensor_id;sensor_type;location;lat;lon;timestamp;P1;durP1;ratioP1;P2;durP2;ratioP2
56720;SDS011;53183;47.412;18.884;2023-04-25T00:00:23;2.78;;;0.98;;
56720;SDS011;53183;47.412;18.884;2023-04-25T00:02:50;2.30;;;1.15;;
56720;SDS011;53183;47.412;18.884;2023-04-25T00:05:17;4.78;;;1.12;;
56720;SDS011;53183;47.412;18.884;2023-04-25T00:07:46;2.08;;;1.00;;
56720;SDS011;53183;47.412;18.884;2023-04-25T00:10:13;1.52;;;1.00;;
56720;SDS011;53183;47.412;18.884;2023-04-25T00:12:40;4.70;;;1.20;;
56720;SDS011;53183;47.412;18.884;2023-04-25T00:15:08;4.50;;;1.27;;
56720;SDS011;53183;47.412;18.884;2023-04-25T00:17:36;2.78;;;1.17;;
56720;SDS011;53183;47.412;18.884;2023-04-25T00:20:05;2.58;;;1.10;;
56720;SDS011;53183;47.412;18.884;2023-04-25T00:22:35;1.10;;;0.90;;
56720;SDS011;53183;47.412;18.884;2023-04-25T00:25:04;4.03;;;2.40;;
56720;SDS011;53183;47.412;18.884;2023-04-25T00:27:32;3.97;;;1.33;;
56720;SDS011;53183;47.412;18.884;2023-04-25T00:30:00;1.65;;;0.90;;
56720;SDS011;53183;47.412;18.884;2023-04-25T00:32:27;2.00;;;1.10;;
56720;SDS011;53183;47.412;18.884;2023-04-25T00:34:54;1.65;;;1.17;;
56720;SDS011;53183;47.412;18.884;2023-04-25T00:37:23;3.28;;;1.67;;
56720;SDS011;53183;47.412;18.884;2023-04-25T00:39:50;2.75;;;1.40;;
56720;SDS011;53183;47.412;18.884;2023-04-25T00:42:17;3.03;;;1.83;;
56720;SDS011;53183;47.412;18.884;2023-04-25T00:44:46;2.53;;;1.92;;
56720;SDS011;53183;47.412;18.884;2023-04-25T00:47:14;4.30;;;2.12;;
56720;SDS011;53183;47.412;18.884;2023-04-25T00:49:42;2.97;;;2.20;;
56720;SDS011;53183;47.412;18.884;2023-04-25T00:52:11;3.35;;;2.12;;
56720;SDS011;53183;47.412;18.884;2023-04-25T00:54:39;5.20;;;2.10;;
56720;SDS011;53183;47.412;18.884;2023-04-25T00:57:06;3.40;;;2.25;;
56720;SDS011;53183;47.412;18.884;2023-04-25T00:59:34;2.50;;;2.05;;
56720;SDS011;53183;47.412;18.884;2023-04-25T01:02:03;5.12;;;2.17;;
56720;SDS011;53183;47.412;18.884;2023-04-25T01:04:31;3.25;;;2.20;;
56720;SDS011;53183;47.412;18.884;2023-04-25T01:06:59;3.08;;;2.05;;
56720;SDS011;53183;47.412;18.884;2023-04-25T01:09:26;3.28;;;2.30;;
56720;SDS011;53183;47.412;18.884;2023-04-25T01:11:54;3.10;;;2.10;;
56720;SDS011;53183;47.412;18.884;2023-04-25T01:14:21;2.87;;;1.80;;
56720;SDS011;53183;47.412;18.884;2023-04-25T01:16:48;3.22;;;1.98;;
56720;SDS011;53183;47.412;18.884;2023-04-25T01:19:16;3.72;;;2.12;;
56720;SDS011;53183;47.412;18.884;2023-04-25T01:21:45;3.83;;;1.67;;
56720;SDS011;53183;47.412;18.884;2023-04-25T01:24:13;2.58;;;1.85;;
56720;SDS011;53183;47.412;18.884;2023-04-25T01:26:41;2.72;;;1.85;;
56720;SDS011;53183;47.412;18.884;2023-04-25T01:29:17;1.73;;;1.25;;
56720;SDS011;53183;47.412;18.884;2023-04-25T01:31:46;3.97;;;1.90;;
56720;SDS011;53183;47.412;18.884;2023-04-25T01:34:13;2.62;;;1.70;;
56720;SDS011;53183;47.412;18.884;2023-04-25T01:36:41;2.05;;;1.60;;
56720;SDS011;53183;47.412;18.884;2023-04-25T01:39:08;2.55;;;1.87;;
56720;SDS011;53183;47.412;18.884;2023-04-25T01:41:37;5.43;;;1.77;;
56720;SDS011;53183;47.412;18.884;2023-04-25T01:44:05;3.50;;;1.42;;
56720;SDS011;53183;47.412;18.884;2023-04-25T01:46:33;3.15;;;2.05;;
56720;SDS011;53183;47.412;18.884;2023-04-25T01:49:01;3.87;;;2.33;;
56720;SDS011;53183;47.412;18.884;2023-04-25T01:51:29;2.95;;;1.85;;
56720;SDS011;53183;47.412;18.884;2023-04-25T01:53:57;4.90;;;2.72;;
56720;SDS011;53183;47.412;18.884;2023-04-25T01:56:31;2.65;;;1.90;;
56720;SDS011;53183;47.412;18.884;2023-04-25T01:59:00;3.15;;;2.15;;
56720;SDS011;53183;47.412;18.884;2023-04-25T02:01:28;2.70;;;1.70;;
56720;SDS011;53183;47.412;18.884;2023-04-25T02:03:57;5.07;;;1.75;;
56720;SDS011;53183;47.412;18.884;2023-04-25T02:06:24;3.08;;;2.03;;
56720;SDS011;53183;47.412;18.884;2023-04-25T02:08:52;3.10;;;1.75;;
56720;SDS011;53183;47.412;18.884;2023-04-25T02:11:19;5.65;;;2.00;;
56720;SDS011;53183;47.412;18.884;2023-04-25T02:13:47;2.40;;;1.70;;
56720;SDS011;53183;47.412;18.884;2023-04-25T02:16:15;3.08;;;1.90;;
56720;SDS011;53183;47.412;18.884;2023-04-25T02:18:42;2.65;;;1.90;;
56720;SDS011;53183;47.412;18.884;2023-04-25T02:21:11;3.60;;;1.92;;
56720;SDS011;53183;47.412;18.884;2023-04-25T02:23:38;4.57;;;2.30;;
56720;SDS011;53183;47.412;18.884;2023-04-25T02:26:06;3.67;;;2.40;;
56720;SDS011;53183;47.412;18.884;2023-04-25T02:28:33;2.75;;;2.00;;
56720;SDS011;53183;47.412;18.884;2023-04-25T02:31:03;7.45;;;2.37;;
56720;SDS011;53183;47.412;18.884;2023-04-25T02:33:30;3.12;;;2.17;;
56720;SDS011;53183;47.412;18.884;2023-04-25T02:35:57;6.28;;;1.92;;
56720;SDS011;53183;47.412;18.884;2023-04-25T02:38:25;2.35;;;1.80;;
56720;SDS011;53183;47.412;18.884;2023-04-25T02:40:52;5.22;;;2.50;;
56720;SDS011;53183;47.412;18.884;2023-04-25T02:43:19;3.97;;;1.75;;
56720;SDS011;53183;47.412;18.884;2023-04-25T02:45:47;4.12;;;1.90;;
56720;SDS011;53183;47.412;18.884;2023-04-25T02:48:14;4.22;;;2.78;;
56720;SDS011;53183;47.412;18.884;2023-04-25T02:50:41;4.55;;;2.15;;
56720;SDS011;53183;47.412;18.884;2023-04-25T02:53:09;3.55;;;2.10;;
56720;SDS011;53183;47.412;18.884;2023-04-25T02:55:36;3.62;;;2.10;;
56720;SDS011;53183;47.412;18.884;2023-04-25T02:58:04;2.17;;;1.85;;
56720;SDS011;53183;47.412;18.884;2023-04-25T03:00:32;3.83;;;2.00;;
56720;SDS011;53183;47.412;18.884;2023-04-25T03:03:00;4.47;;;2.17;;
56720;SDS011;53183;47.412;18.884;2023-04-25T03:05:27;2.95;;;1.90;;
56720;SDS011;53183;47.412;18.884;2023-04-25T03:07:54;3.85;;;2.00;;
56720;SDS011;53183;47.412;18.884;2023-04-25T03:10:21;4.28;;;2.42;;
56720;SDS011;53183;47.412;18.884;2023-04-25T03:12:49;3.75;;;2.28;;
56720;SDS011;53183;47.412;18.884;2023-04-25T03:15:16;3.85;;;2.40;;
56720;SDS011;53183;47.412;18.884;2023-04-25T03:17:44;5.68;;;2.33;;
56720;SDS011;53183;47.412;18.884;2023-04-25T03:20:11;2.47;;;1.70;;
56720;SDS011;53183;47.412;18.884;2023-04-25T03:22:38;3.22;;;1.77;;
56720;SDS011;53183;47.412;18.884;2023-04-25T03:25:06;3.70;;;2.33;;
56720;SDS011;53183;47.412;18.884;2023-04-25T03:27:34;3.97;;;2.22;;
56720;SDS011;53183;47.412;18.884;2023-04-25T03:30:01;4.22;;;2.05;;
56720;SDS011;53183;47.412;18.884;2023-04-25T03:32:29;5.32;;;1.80;;
56720;SDS011;53183;47.412;18.884;2023-04-25T03:34:56;4.15;;;2.22;;
56720;SDS011;53183;47.412;18.884;2023-04-25T03:37:24;3.42;;;2.20;;
56720;SDS011;53183;47.412;18.884;2023-04-25T03:39:51;4.70;;;2.47;;
56720;SDS011;53183;47.412;18.884;2023-04-25T03:42:20;6.05;;;2.62;;
56720;SDS011;53183;47.412;18.884;2023-04-25T03:44:51;3.92;;;2.50;;
56720;SDS011;53183;47.412;18.884;2023-04-25T03:47:18;5.12;;;2.10;;
56720;SDS011;53183;47.412;18.884;2023-04-25T03:49:46;4.00;;;2.40;;
56720;SDS011;53183;47.412;18.884;2023-04-25T03:52:14;3.10;;;2.12;;
56720;SDS011;53183;47.412;18.884;2023-04-25T03:54:41;3.20;;;2.12;;
56720;SDS011;53183;47.412;18.884;2023-04-25T03:57:08;3.90;;;2.37;;
56720;SDS011;53183;47.412;18.884;2023-04-25T03:59:36;3.90;;;2.50;;
56720;SDS011;53183;47.412;18.884;2023-04-25T04:02:04;4.80;;;2.15;;
56720;SDS011;53183;47.412;18.884;2023-04-25T04:04:32;5.60;;;2.05;;
56720;SDS011;53183;47.412;18.884;2023-04-25T04:07:00;3.00;;;2.08;;
56720;SDS011;53183;47.412;18.884;2023-04-25T04:09:27;3.83;;;2.50;;
56720;SDS011;53183;47.412;18.884;2023-04-25T04:11:55;6.05;;;2.62;;
56720;SDS011;53183;47.412;18.884;2023-04-25T04:14:22;4.22;;;2.30;;
56720;SDS011;53183;47.412;18.884;2023-04-25T04:16:50;4.22;;;2.45;;
56720;SDS011;53183;47.412;18.884;2023-04-25T04:19:19;4.90;;;2.85;;
56720;SDS011;53183;47.412;18.884;2023-04-25T04:21:46;4.00;;;2.28;;
56720;SDS011;53183;47.412;18.884;2023-04-25T04:24:13;6.15;;;2.50;;
56720;SDS011;53183;47.412;18.884;2023-04-25T04:26:42;3.53;;;2.72;;
56720;SDS011;53183;47.412;18.884;2023-04-25T04:29:11;4.05;;;2.37;;
56720;SDS011;53183;47.412;18.884;2023-04-25T04:31:39;5.90;;;2.65;;
56720;SDS011;53183;47.412;18.884;2023-04-25T04:34:06;4.18;;;2.75;;
56720;SDS011;53183;47.412;18.884;2023-04-25T04:36:34;4.60;;;2.53;;
56720;SDS011;53183;47.412;18.884;2023-04-25T04:39:01;5.78;;;3.30;;
56720;SDS011;53183;47.412;18.884;2023-04-25T04:41:30;4.43;;;2.72;;
56720;SDS011;53183;47.412;18.884;2023-04-25T04:43:59;3.75;;;2.60;;
56720;SDS011;53183;47.412;18.884;2023-04-25T04:46:28;4.60;;;2.45;;
56720;SDS011;53183;47.412;18.884;2023-04-25T04:48:55;6.35;;;2.85;;
56720;SDS011;53183;47.412;18.884;2023-04-25T04:51:24;4.50;;;3.10;;
56720;SDS011;53183;47.412;18.884;2023-04-25T04:53:55;4.22;;;2.80;;
56720;SDS011;53183;47.412;18.884;2023-04-25T04:56:26;5.75;;;3.05;;
56720;SDS011;53183;47.412;18.884;2023-04-25T04:58:55;5.10;;;3.12;;
56720;SDS011;53183;47.412;18.884;2023-04-25T05:01:22;6.95;;;3.12;;
56720;SDS011;53183;47.412;18.884;2023-04-25T05:03:52;6.25;;;3.30;;
56720;SDS011;53183;47.412;18.884;2023-04-25T05:06:21;5.32;;;3.15;;
56720;SDS011;53183;47.412;18.884;2023-04-25T05:08:48;6.80;;;3.28;;
56720;SDS011;53183;47.412;18.884;2023-04-25T05:11:16;5.53;;;3.17;;
56720;SDS011;53183;47.412;18.884;2023-04-25T05:13:46;6.28;;;3.20;;
56720;SDS011;53183;47.412;18.884;2023-04-25T05:16:14;6.78;;;3.15;;
56720;SDS011;53183;47.412;18.884;2023-04-25T05:18:42;8.07;;;3.47;;
56720;SDS011;53183;47.412;18.884;2023-04-25T05:21:10;5.53;;;3.50;;
56720;SDS011;53183;47.412;18.884;2023-04-25T05:23:37;8.13;;;3.33;;
56720;SDS011;53183;47.412;18.884;2023-04-25T05:26:04;5.93;;;3.40;;
56720;SDS011;53183;47.412;18.884;2023-04-25T05:28:32;7.95;;;4.40;;
56720;SDS011;53183;47.412;18.884;2023-04-25T05:31:01;5.75;;;3.28;;
56720;SDS011;53183;47.412;18.884;2023-04-25T05:33:28;5.40;;;3.78;;
56720;SDS011;53183;47.412;18.884;2023-04-25T05:35:56;4.97;;;3.00;;
56720;SDS011;53183;47.412;18.884;2023-04-25T05:38:24;4.65;;;3.72;;
56720;SDS011;53183;47.412;18.884;2023-04-25T05:40:53;6.87;;;3.92;;
56720;SDS011;53183;47.412;18.884;2023-04-25T05:43:21;4.43;;;3.28;;
56720;SDS011;53183;47.412;18.884;2023-04-25T05:45:48;6.00;;;3.45;;
56720;SDS011;53183;47.412;18.884;2023-04-25T05:48:18;5.87;;;3.60;;
56720;SDS011;53183;47.412;18.884;2023-04-25T05:50:46;4.57;;;3.25;;
56720;SDS011;53183;47.412;18.884;2023-04-25T05:53:14;7.18;;;3.35;;
56720;SDS011;53183;47.412;18.884;2023-04-25T05:55:41;7.30;;;3.78;;
56720;SDS011;53183;47.412;18.884;2023-04-25T05:58:11;13.75;;;3.90;;
56720;SDS011;53183;47.412;18.884;2023-04-25T06:00:38;4.72;;;3.15;;
56720;SDS011;53183;47.412;18.884;2023-04-25T06:03:06;5.78;;;3.70;;
56720;SDS011;53183;47.412;18.884;2023-04-25T06:05:36;8.27;;;3.65;;
56720;SDS011;53183;47.412;18.884;2023-04-25T06:08:03;6.47;;;3.45;;
56720;SDS011;53183;47.412;18.884;2023-04-25T06:10:31;5.10;;;2.70;;
56720;SDS011;53183;47.412;18.884;2023-04-25T06:12:58;6.62;;;3.15;;
56720;SDS011;53183;47.412;18.884;2023-04-25T06:15:25;5.45;;;3.05;;
56720;SDS011;53183;47.412;18.884;2023-04-25T06:17:55;8.77;;;4.12;;
56720;SDS011;53183;47.412;18.884;2023-04-25T06:20:22;5.55;;;3.35;;
56720;SDS011;53183;47.412;18.884;2023-04-25T06:22:51;5.50;;;3.37;;
56720;SDS011;53183;47.412;18.884;2023-04-25T06:25:20;4.72;;;3.35;;
56720;SDS011;53183;47.412;18.884;2023-04-25T06:27:48;5.20;;;3.30;;
56720;SDS011;53183;47.412;18.884;2023-04-25T06:30:15;22.05;;;4.85;;
56720;SDS011;53183;47.412;18.884;2023-04-25T06:32:45;5.55;;;3.65;;
56720;SDS011;53183;47.412;18.884;2023-04-25T06:35:13;5.12;;;3.55;;
56720;SDS011;53183;47.412;18.884;2023-04-25T06:37:40;5.25;;;3.30;;
56720;SDS011;53183;47.412;18.884;2023-04-25T06:40:08;4.03;;;3.12;;
56720;SDS011;53183;47.412;18.884;2023-04-25T06:42:35;5.80;;;2.97;;
56720;SDS011;53183;47.412;18.884;2023-04-25T06:45:04;4.57;;;2.85;;
56720;SDS011;53183;47.412;18.884;2023-04-25T06:47:32;4.20;;;3.05;;
56720;SDS011;53183;47.412;18.884;2023-04-25T06:50:00;7.93;;;3.67;;
56720;SDS011;53183;47.412;18.884;2023-04-25T06:52:29;4.50;;;3.10;;
56720;SDS011;53183;47.412;18.884;2023-04-25T06:54:57;4.95;;;3.12;;
56720;SDS011;53183;47.412;18.884;2023-04-25T06:57:27;4.20;;;2.95;;
56720;SDS011;53183;47.412;18.884;2023-04-25T06:59:55;6.82;;;2.80;;
56720;SDS011;53183;47.412;18.884;2023-04-25T07:02:23;6.47;;;3.12;;
56720;SDS011;53183;47.412;18.884;2023-04-25T07:04:51;3.28;;;2.62;;
56720;SDS011;53183;47.412;18.884;2023-04-25T07:07:18;5.32;;;2.62;;
56720;SDS011;53183;47.412;18.884;2023-04-25T07:09:47;3.97;;;2.87;;
56720;SDS011;53183;47.412;18.884;2023-04-25T07:12:14;3.87;;;3.08;;
56720;SDS011;53183;47.412;18.884;2023-04-25T07:14:42;4.03;;;3.40;;
56720;SDS011;53183;47.412;18.884;2023-04-25T07:17:10;4.03;;;2.70;;
56720;SDS011;53183;47.412;18.884;2023-04-25T07:19:37;5.22;;;3.00;;
56720;SDS011;53183;47.412;18.884;2023-04-25T07:22:06;5.80;;;2.85;;
56720;SDS011;53183;47.412;18.884;2023-04-25T07:24:34;2.85;;;2.22;;
56720;SDS011;53183;47.412;18.884;2023-04-25T07:27:07;3.33;;;2.28;;
56720;SDS011;53183;47.412;18.884;2023-04-25T07:29:34;4.75;;;2.70;;
56720;SDS011;53183;47.412;18.884;2023-04-25T07:32:04;7.10;;;2.78;;
56720;SDS011;53183;47.412;18.884;2023-04-25T07:34:31;4.50;;;2.72;;
56720;SDS011;53183;47.412;18.884;2023-04-25T07:36:59;3.42;;;2.55;;
56720;SDS011;53183;47.412;18.884;2023-04-25T07:39:27;69.85;;;8.30;;
56720;SDS011;53183;47.412;18.884;2023-04-25T07:41:55;3.15;;;2.12;;
56720;SDS011;53183;47.412;18.884;2023-04-25T07:44:23;3.70;;;2.37;;
56720;SDS011;53183;47.412;18.884;2023-04-25T07:46:52;4.68;;;2.67;;
56720;SDS011;53183;47.412;18.884;2023-04-25T07:49:20;4.70;;;2.30;;
56720;SDS011;53183;47.412;18.884;2023-04-25T07:51:48;4.62;;;2.92;;
56720;SDS011;53183;47.412;18.884;2023-04-25T07:54:15;5.05;;;2.78;;
56720;SDS011;53183;47.412;18.884;2023-04-25T07:56:43;4.80;;;3.15;;
56720;SDS011;53183;47.412;18.884;2023-04-25T07:59:20;3.85;;;2.72;;
56720;SDS011;53183;47.412;18.884;2023-04-25T08:01:47;5.57;;;2.55;;
56720;SDS011;53183;47.412;18.884;2023-04-25T08:04:16;4.07;;;2.17;;
56720;SDS011;53183;47.412;18.884;2023-04-25T08:06:45;4.10;;;2.65;;
56720;SDS011;53183;47.412;18.884;2023-04-25T08:09:13;3.00;;;2.58;;
56720;SDS011;53183;47.412;18.884;2023-04-25T08:11:41;5.37;;;2.85;;
56720;SDS011;53183;47.412;18.884;2023-04-25T08:14:09;4.12;;;2.92;;
56720;SDS011;53183;47.412;18.884;2023-04-25T08:16:36;4.97;;;3.00;;
56720;SDS011;53183;47.412;18.884;2023-04-25T08:19:04;4.50;;;3.05;;
56720;SDS011;53183;47.412;18.884;2023-04-25T08:21:32;4.25;;;3.17;;
56720;SDS011;53183;47.412;18.884;2023-04-25T08:24:00;6.18;;;3.30;;
56720;SDS011;53183;47.412;18.884;2023-04-25T08:26:30;3.42;;;3.00;;
56720;SDS011;53183;47.412;18.884;2023-04-25T08:28:58;6.20;;;2.67;;
56720;SDS011;53183;47.412;18.884;2023-04-25T08:31:27;4.78;;;2.78;;
56720;SDS011;53183;47.412;18.884;2023-04-25T08:33:55;7.57;;;2.65;;
56720;SDS011;53183;47.412;18.884;2023-04-25T08:36:22;5.25;;;2.80;;
56720;SDS011;53183;47.412;18.884;2023-04-25T08:38:57;3.65;;;2.50;;
56720;SDS011;53183;47.412;18.884;2023-04-25T08:41:25;9.30;;;3.80;;
56720;SDS011;53183;47.412;18.884;2023-04-25T08:43:53;3.65;;;2.95;;
56720;SDS011;53183;47.412;18.884;2023-04-25T08:46:24;8.32;;;3.53;;
56720;SDS011;53183;47.412;18.884;2023-04-25T08:48:52;6.78;;;4.53;;
56720;SDS011;53183;47.412;18.884;2023-04-25T08:51:25;3.55;;;2.83;;
56720;SDS011;53183;47.412;18.884;2023-04-25T08:53:54;7.00;;;4.28;;
56720;SDS011;53183;47.412;18.884;2023-04-25T08:56:28;4.03;;;2.80;;
56720;SDS011;53183;47.412;18.884;2023-04-25T08:58:56;5.68;;;3.00;;
56720;SDS011;53183;47.412;18.884;2023-04-25T09:01:24;4.32;;;3.60;;
56720;SDS011;53183;47.412;18.884;2023-04-25T09:03:53;5.80;;;3.12;;
56720;SDS011;53183;47.412;18.884;2023-04-25T09:06:20;5.95;;;3.78;;
56720;SDS011;53183;47.412;18.884;2023-04-25T09:08:50;5.05;;;3.37;;
56720;SDS011;53183;47.412;18.884;2023-04-25T09:11:17;5.37;;;3.40;;
56720;SDS011;53183;47.412;18.884;2023-04-25T09:13:49;8.32;;;4.37;;
56720;SDS011;53183;47.412;18.884;2023-04-25T09:16:57;4.37;;;3.08;;
56720;SDS011;53183;47.412;18.884;2023-04-25T09:19:30;4.57;;;2.87;;
56720;SDS011;53183;47.412;18.884;2023-04-25T09:22:03;5.85;;;3.20;;
56720;SDS011;53183;47.412;18.884;2023-04-25T09:24:32;5.35;;;3.33;;
56720;SDS011;53183;47.412;18.884;2023-04-25T09:27:00;12.35;;;3.03;;
56720;SDS011;53183;47.412;18.884;2023-04-25T09:29:38;2.92;;;2.40;;
56720;SDS011;53183;47.412;18.884;2023-04-25T09:34:41;4.05;;;3.05;;
56720;SDS011;53183;47.412;18.884;2023-04-25T09:37:10;3.87;;;2.50;;
56720;SDS011;53183;47.412;18.884;2023-04-25T09:39:42;4.32;;;2.70;;
56720;SDS011;53183;47.412;18.884;2023-04-25T09:42:12;5.90;;;2.35;;
56720;SDS011;53183;47.412;18.884;2023-04-25T09:44:44;3.72;;;2.67;;
56720;SDS011;53183;47.412;18.884;2023-04-25T09:47:14;8.98;;;3.40;;
56720;SDS011;53183;47.412;18.884;2023-04-25T09:49:43;6.37;;;4.20;;
56720;SDS011;53183;47.412;18.884;2023-04-25T09:52:15;4.60;;;3.25;;
56720;SDS011;53183;47.412;18.884;2023-04-25T09:54:49;7.40;;;4.87;;
56720;SDS011;53183;47.412;18.884;2023-04-25T09:57:18;4.80;;;3.65;;
56720;SDS011;53183;47.412;18.884;2023-04-25T10:02:24;3.72;;;2.50;;
56720;SDS011;53183;47.412;18.884;2023-04-25T10:04:54;3.55;;;2.35;;
56720;SDS011;53183;47.412;18.884;2023-04-25T10:07:24;3.55;;;2.47;;
56720;SDS011;53183;47.412;18.884;2023-04-25T10:10:00;3.87;;;2.00;;
56720;SDS011;53183;47.412;18.884;2023-04-25T10:12:30;4.07;;;2.08;;
56720;SDS011;53183;47.412;18.884;2023-04-25T10:15:00;4.90;;;2.00;;
56720;SDS011;53183;47.412;18.884;2023-04-25T10:17:28;5.37;;;2.05;;
56720;SDS011;53183;47.412;18.884;2023-04-25T10:19:55;5.07;;;1.87;;
56720;SDS011;53183;47.412;18.884;2023-04-25T10:22:26;3.97;;;1.48;;
56720;SDS011;53183;47.412;18.884;2023-04-25T10:24:55;2.42;;;1.60;;
56720;SDS011;53183;47.412;18.884;2023-04-25T10:27:23;1.58;;;1.27;;
56720;SDS011;53183;47.412;18.884;2023-04-25T10:30:04;1.67;;;1.55;;
56720;SDS011;53183;47.412;18.884;2023-04-25T10:32:35;4.25;;;1.50;;
56720;SDS011;53183;47.412;18.884;2023-04-25T10:35:16;2.03;;;1.40;;
56720;SDS011;53183;47.412;18.884;2023-04-25T10:37:58;4.45;;;2.33;;
56720;SDS011;53183;47.412;18.884;2023-04-25T10:40:33;3.22;;;1.33;;
56720;SDS011;53183;47.412;18.884;2023-04-25T10:48:51;3.95;;;1.65;;
56720;SDS011;53183;47.412;18.884;2023-04-25T10:56:24;3.20;;;1.15;;
56720;SDS011;53183;47.412;18.884;2023-04-25T10:59:04;5.70;;;1.10;;
56720;SDS011;53183;47.412;18.884;2023-04-25T11:01:35;3.67;;;2.20;;
56720;SDS011;53183;47.412;18.884;2023-04-25T11:04:18;1.05;;;0.70;;
56720;SDS011;53183;47.412;18.884;2023-04-25T11:09:34;3.58;;;0.90;;
56720;SDS011;53183;47.412;18.884;2023-04-25T11:12:02;1.65;;;0.90;;
56720;SDS011;53183;47.412;18.884;2023-04-25T11:14:30;2.92;;;1.05;;
56720;SDS011;53183;47.412;18.884;2023-04-25T11:16:58;1.25;;;0.80;;
56720;SDS011;53183;47.412;18.884;2023-04-25T11:19:27;0.60;;;0.47;;
56720;SDS011;53183;47.412;18.884;2023-04-25T11:21:55;2.10;;;0.57;;
56720;SDS011;53183;47.412;18.884;2023-04-25T11:24:30;1.75;;;1.15;;
56720;SDS011;53183;47.412;18.884;2023-04-25T11:26:59;1.33;;;0.70;;
56720;SDS011;53183;47.412;18.884;2023-04-25T11:29:29;2.05;;;0.80;;
56720;SDS011;53183;47.412;18.884;2023-04-25T11:31:58;1.30;;;0.80;;
56720;SDS011;53183;47.412;18.884;2023-04-25T11:34:27;4.03;;;1.10;;
56720;SDS011;53183;47.412;18.884;2023-04-25T11:36:58;5.22;;;0.80;;
56720;SDS011;53183;47.412;18.884;2023-04-25T11:39:26;1.87;;;0.77;;
56720;SDS011;53183;47.412;18.884;2023-04-25T11:41:55;1.25;;;0.85;;
56720;SDS011;53183;47.412;18.884;2023-04-25T11:44:22;1.98;;;1.25;;
56720;SDS011;53183;47.412;18.884;2023-04-25T11:46:50;1.17;;;0.80;;
56720;SDS011;53183;47.412;18.884;2023-04-25T11:49:17;1.35;;;1.05;;
56720;SDS011;53183;47.412;18.884;2023-04-25T11:51:46;1.05;;;0.80;;
56720;SDS011;53183;47.412;18.884;2023-04-25T11:54:14;3.53;;;1.12;;
56720;SDS011;53183;47.412;18.884;2023-04-25T11:56:43;1.73;;;1.10;;
56720;SDS011;53183;47.412;18.884;2023-04-25T11:59:11;5.22;;;1.20;;
56720;SDS011;53183;47.412;18.884;2023-04-25T12:01:40;1.30;;;1.00;;
56720;SDS011;53183;47.412;18.884;2023-04-25T12:04:21;4.72;;;1.20;;
56720;SDS011;53183;47.412;18.884;2023-04-25T12:06:53;2.12;;;0.90;;
56720;SDS011;53183;47.412;18.884;2023-04-25T12:09:32;0.90;;;0.70;;
56720;SDS011;53183;47.412;18.884;2023-04-25T12:12:00;3.20;;;1.80;;
56720;SDS011;53183;47.412;18.884;2023-04-25T12:14:33;2.40;;;1.48;;
56720;SDS011;53183;47.412;18.884;2023-04-25T12:17:02;4.68;;;1.15;;
56720;SDS011;53183;47.412;18.884;2023-04-25T12:19:34;4.45;;;1.05;;
56720;SDS011;53183;47.412;18.884;2023-04-25T12:22:21;1.70;;;0.80;;
56720;SDS011;53183;47.412;18.884;2023-04-25T12:24:49;3.75;;;1.12;;
56720;SDS011;53183;47.412;18.884;2023-04-25T12:27:17;2.00;;;1.02;;
56720;SDS011;53183;47.412;18.884;2023-04-25T12:29:52;1.35;;;1.10;;
56720;SDS011;53183;47.412;18.884;2023-04-25T12:32:21;2.28;;;1.20;;
56720;SDS011;53183;47.412;18.884;2023-04-25T12:34:49;2.40;;;1.58;;
56720;SDS011;53183;47.412;18.884;2023-04-25T12:37:16;4.78;;;1.23;;
56720;SDS011;53183;47.412;18.884;2023-04-25T12:39:43;1.92;;;1.40;;
56720;SDS011;53183;47.412;18.884;2023-04-25T12:42:10;1.50;;;1.00;;
56720;SDS011;53183;47.412;18.884;2023-04-25T12:44:40;2.47;;;1.40;;
56720;SDS011;53183;47.412;18.884;2023-04-25T12:47:08;4.15;;;1.40;;
56720;SDS011;53183;47.412;18.884;2023-04-25T12:49:35;2.92;;;1.05;;
56720;SDS011;53183;47.412;18.884;2023-04-25T12:52:02;2.97;;;2.15;;
56720;SDS011;53183;47.412;18.884;2023-04-25T12:54:30;2.25;;;1.65;;
56720;SDS011;53183;47.412;18.884;2023-04-25T12:56:57;5.90;;;1.30;;
56720;SDS011;53183;47.412;18.884;2023-04-25T12:59:24;2.92;;;1.58;;
56720;SDS011;53183;47.412;18.884;2023-04-25T13:01:52;3.37;;;1.20;;
56720;SDS011;53183;47.412;18.884;2023-04-25T13:04:19;2.92;;;1.55;;
56720;SDS011;53183;47.412;18.884;2023-04-25T13:06:48;4.78;;;1.65;;
56720;SDS011;53183;47.412;18.884;2023-04-25T13:09:15;2.40;;;1.40;;
56720;SDS011;53183;47.412;18.884;2023-04-25T13:11:42;1.33;;;1.10;;
56720;SDS011;53183;47.412;18.884;2023-04-25T13:14:10;4.62;;;1.70;;
56720;SDS011;53183;47.412;18.884;2023-04-25T13:16:37;3.70;;;1.33;;
56720;SDS011;53183;47.412;18.884;2023-04-25T13:19:04;1.85;;;1.08;;
56720;SDS011;53183;47.412;18.884;2023-04-25T13:21:34;2.55;;;1.83;;
56720;SDS011;53183;47.412;18.884;2023-04-25T13:24:01;2.75;;;1.52;;
56720;SDS011;53183;47.412;18.884;2023-04-25T13:26:28;4.20;;;1.27;;
56720;SDS011;53183;47.412;18.884;2023-04-25T13:28:55;5.62;;;3.08;;
56720;SDS011;53183;47.412;18.884;2023-04-25T13:31:24;5.00;;;2.42;;
56720;SDS011;53183;47.412;18.884;2023-04-25T13:33:51;2.05;;;1.10;;
56720;SDS011;53183;47.412;18.884;2023-04-25T13:36:19;3.05;;;1.58;;
56720;SDS011;53183;47.412;18.884;2023-04-25T13:38:46;2.90;;;1.65;;
56720;SDS011;53183;47.412;18.884;2023-04-25T13:41:16;2.15;;;1.40;;
56720;SDS011;53183;47.412;18.884;2023-04-25T13:43:46;7.35;;;1.40;;
56720;SDS011;53183;47.412;18.884;2023-04-25T13:46:15;3.28;;;1.70;;
56720;SDS011;53183;47.412;18.884;2023-04-25T13:49:03;2.83;;;1.20;;
56720;SDS011;53183;47.412;18.884;2023-04-25T13:51:39;3.60;;;1.55;;
56720;SDS011;53183;47.412;18.884;2023-04-25T13:54:07;2.17;;;1.48;;
56720;SDS011;53183;47.412;18.884;2023-04-25T13:56:34;2.72;;;1.37;;
56720;SDS011;53183;47.412;18.884;2023-04-25T13:59:02;1.45;;;1.23;;
56720;SDS011;53183;47.412;18.884;2023-04-25T14:01:29;2.25;;;1.55;;
56720;SDS011;53183;47.412;18.884;2023-04-25T14:04:01;3.72;;;1.37;;
56720;SDS011;53183;47.412;18.884;2023-04-25T14:06:31;3.17;;;1.50;;
56720;SDS011;53183;47.412;18.884;2023-04-25T14:08:58;5.57;;;1.40;;
56720;SDS011;53183;47.412;18.884;2023-04-25T14:11:28;3.83;;;1.48;;
56720;SDS011;53183;47.412;18.884;2023-04-25T14:13:55;4.95;;;1.60;;
56720;SDS011;53183;47.412;18.884;2023-04-25T14:16:22;5.72;;;1.45;;
56720;SDS011;53183;47.412;18.884;2023-04-25T14:18:50;2.83;;;1.40;;
56720;SDS011;53183;47.412;18.884;2023-04-25T14:21:17;2.55;;;1.27;;
56720;SDS011;53183;47.412;18.884;2023-04-25T14:23:44;2.85;;;1.62;;
56720;SDS011;53183;47.412;18.884;2023-04-25T14:26:12;6.55;;;1.45;;
56720;SDS011;53183;47.412;18.884;2023-04-25T14:28:39;6.72;;;2.50;;
56720;SDS011;53183;47.412;18.884;2023-04-25T14:31:06;3.30;;;1.30;;
56720;SDS011;53183;47.412;18.884;2023-04-25T14:33:34;2.10;;;1.42;;
56720;SDS011;53183;47.412;18.884;2023-04-25T14:36:01;2.37;;;1.10;;
56720;SDS011;53183;47.412;18.884;2023-04-25T14:38:29;3.12;;;1.60;;
56720;SDS011;53183;47.412;18.884;2023-04-25T14:40:56;3.08;;;1.85;;
56720;SDS011;53183;47.412;18.884;2023-04-25T14:43:23;2.47;;;1.60;;
56720;SDS011;53183;47.412;18.884;2023-04-25T14:45:50;1.90;;;1.50;;
56720;SDS011;53183;47.412;18.884;2023-04-25T14:48:18;1.60;;;1.27;;
56720;SDS011;53183;47.412;18.884;2023-04-25T14:50:46;2.05;;;1.65;;
56720;SDS011;53183;47.412;18.884;2023-04-25T14:53:13;3.72;;;1.58;;
56720;SDS011;53183;47.412;18.884;2023-04-25T14:55:41;4.00;;;1.65;;
56720;SDS011;53183;47.412;18.884;2023-04-25T14:58:08;2.45;;;1.42;;
56720;SDS011;53183;47.412;18.884;2023-04-25T15:00:36;3.78;;;1.30;;